sensor_id;sensor_type;location;lat;lon;timestamp;pressure;altitude;pressure_sealevel;temperature;humidity
53300;BME280;39187;48.476;8.310;2023-05-17T00:01:31;91523.72;;;3.48;100.00
53300;BME280;39187;48.476;8.310;2023-05-17T00:03:57;91524.81;;;3.43;100.00
53300;BME280;39187;48.476;8.310;2023-05-17T00:06:23;91523.78;;;3.55;100.00
53300;BME280;39187;48.476;8.310;2023-05-17T00:08:48;91523.31;;;3.46;100.00
53300;BME280;39187;48.476;8.310;2023-05-17T00:11:14;91535.72;;;3.45;100.00
53300;BME280;39187;48.476;8.310;2023-05-17T00:13:40;91523.78;;;3.55;100.00
53300;BME280;39187;48.476;8.310;2023-05-17T00:16:07;91535.41;;;3.50;100.00
53300;BME280;39187;48.476;8.310;2023-05-17T00:18:32;91520.72;;;3.49;100.00
53300;BME280;39187;48.476;8.310;2023-05-17T00:20:58;91530.00;;;3.36;100.00
53300;BME280;39187;48.476;8.310;2023-05-17T00:23:23;91535.16;;;3.26;100.00
53300;BME280;39187;48.476;8.310;2023-05-17T00:25:49;91540.09;;;3.31;100.00
53300;BME280;39187;48.476;8.310;2023-05-17T00:28:15;91543.81;;;3.30;100.00
53300;BME280;39187;48.476;8.310;2023-05-17T00:30:40;91541.53;;;3.25;100.00
53300;BME280;39187;48.476;8.310;2023-05-17T00:33:06;91552.41;;;3.23;100.00
53300;BME280;39187;48.476;8.310;2023-05-17T00:35:31;91552.47;;;3.30;100.00
53300;BME280;39187;48.476;8.310;2023-05-17T00:37:57;91550.13;;;3.21;100.00
53300;BME280;39187;48.476;8.310;2023-05-17T00:40:23;91551.91;;;3.14;100.00
53300;BME280;39187;48.476;8.310;2023-05-17T00:42:48;91551.63;;;3.22;100.00
53300;BME280;39187;48.476;8.310;2023-05-17T00:45:14;91551.91;;;3.14;100.00
53300;BME280;39187;48.476;8.310;2023-05-17T00:47:40;91544.94;;;3.29;100.00
53300;BME280;39187;48.476;8.310;2023-05-17T00:50:07;91557.22;;;3.17;100.00
53300;BME280;39187;48.476;8.310;2023-05-17T00:52:34;91555.75;;;3.20;100.00
53300;BME280;39187;48.476;8.310;2023-05-17T00:55:01;91557.84;;;3.07;100.00
53300;BME280;39187;48.476;8.310;2023-05-17T00:57:28;91547.31;;;3.07;100.00
53300;BME280;39187;48.476;8.310;2023-05-17T00:59:54;91548.47;;;3.06;100.00
53300;BME280;39187;48.476;8.310;2023-05-17T01:02:20;91547.03;;;3.12;100.00
53300;BME280;39187;48.476;8.310;2023-05-17T01:04:47;91548.38;;;2.99;100.00
53300;BME280;39187;48.476;8.310;2023-05-17T01:07:13;91548.06;;;3.04;100.00
53300;BME280;39187;48.476;8.310;2023-05-17T01:09:38;91549.88;;;3.00;100.00
53300;BME280;39187;48.476;8.310;2023-05-17T01:12:17;91548.31;;;2.96;100.00
53300;BME280;39187;48.476;8.310;2023-05-17T01:14:56;91558.31;;;3.13;100.00
53300;BME280;39187;48.476;8.310;2023-05-17T01:17:34;91558.44;;;2.94;100.00
53300;BME280;39187;48.476;8.310;2023-05-17T01:22:40;91569.66;;;2.91;100.00
53300;BME280;39187;48.476;8.310;2023-05-17T01:28:21;91566.59;;;2.85;100.00
53300;BME280;39187;48.476;8.310;2023-05-17T01:30:50;91571.50;;;2.87;100.00
53300;BME280;39187;48.476;8.310;2023-05-17T01:33:17;91567.69;;;2.84;100.00
53300;BME280;39187;48.476;8.310;2023-05-17T01:35:43;91564.06;;;2.92;100.00
53300;BME280;39187;48.476;8.310;2023-05-17T01:38:09;91573.69;;;2.81;100.00
53300;BME280;39187;48.476;8.310;2023-05-17T01:41:26;91572.19;;;2.83;100.00
53300;BME280;39187;48.476;8.310;2023-05-17T01:43:30;91579.31;;;2.83;100.00
53300;BME280;39187;48.476;8.310;2023-05-17T01:48:42;91568.06;;;2.82;100.00
53300;BME280;39187;48.476;8.310;2023-05-17T01:51:16;91574.81;;;2.83;100.00
53300;BME280;39187;48.476;8.310;2023-05-17T01:53:47;91574.69;;;2.73;100.00
53300;BME280;39187;48.476;8.310;2023-05-17T01:56:33;91569.97;;;2.86;100.00
53300;BME280;39187;48.476;8.310;2023-05-17T01:59:02;91574.06;;;2.83;100.00
53300;BME280;39187;48.476;8.310;2023-05-17T02:01:31;91574.81;;;2.83;100.00
53300;BME280;39187;48.476;8.310;2023-05-17T02:03:57;91567.34;;;2.86;100.00
53300;BME280;39187;48.476;8.310;2023-05-17T02:06:22;91572.25;;;2.87;100.00
53300;BME280;39187;48.476;8.310;2023-05-17T02:08:48;91570.44;;;2.91;100.00
53300;BME280;39187;48.476;8.310;2023-05-17T02:11:13;91572.97;;;2.84;100.00
53300;BME280;39187;48.476;8.310;2023-05-17T02:13:39;91586.19;;;2.91;100.00
53300;BME280;39187;48.476;8.310;2023-05-17T02:16:05;91578.88;;;2.77;100.00
53300;BME280;39187;48.476;8.310;2023-05-17T02:18:30;91574.78;;;2.80;100.00
53300;BME280;39187;48.476;8.310;2023-05-17T02:20:56;91576.97;;;2.74;100.00
53300;BME280;39187;48.476;8.310;2023-05-17T02:23:22;91570.59;;;2.75;100.00
53300;BME280;39187;48.476;8.310;2023-05-17T02:25:49;91582.25;;;2.78;100.00
53300;BME280;39187;48.476;8.310;2023-05-17T02:28:15;91572.81;;;2.73;100.00
53300;BME280;39187;48.476;8.310;2023-05-17T02:30:40;91572.47;;;2.75;100.00
53300;BME280;39187;48.476;8.310;2023-05-17T02:33:07;91572.94;;;2.80;100.00
53300;BME280;39187;48.476;8.310;2023-05-17T02:35:32;91583.94;;;2.63;100.00
53300;BME280;39187;48.476;8.310;2023-05-17T02:37:58;91577.78;;;2.78;100.00
53300;BME280;39187;48.476;8.310;2023-05-17T02:40:24;91588.16;;;2.68;100.00
53300;BME280;39187;48.476;8.310;2023-05-17T02:42:50;91580.19;;;2.64;100.00
53300;BME280;39187;48.476;8.310;2023-05-17T02:45:15;91582.72;;;2.83;100.00
53300;BME280;39187;48.476;8.310;2023-05-17T02:47:41;91590.13;;;2.74;100.00
53300;BME280;39187;48.476;8.310;2023-05-17T02:50:07;91583.94;;;2.63;100.00
53300;BME280;39187;48.476;8.310;2023-05-17T02:52:32;91584.31;;;2.62;100.00
53300;BME280;39187;48.476;8.310;2023-05-17T02:54:58;91585.81;;;2.63;100.00
53300;BME280;39187;48.476;8.310;2023-05-17T02:57:24;91572.88;;;2.77;100.00
53300;BME280;39187;48.476;8.310;2023-05-17T02:59:49;91584.31;;;2.62;100.00
53300;BME280;39187;48.476;8.310;2023-05-17T03:02:15;91584.22;;;2.55;100.00
53300;BME280;39187;48.476;8.310;2023-05-17T03:04:40;91583.13;;;2.59;100.00
53300;BME280;39187;48.476;8.310;2023-05-17T03:07:06;91585.34;;;2.57;100.00
53300;BME280;39187;48.476;8.310;2023-05-17T03:09:31;91578.75;;;2.67;100.00
53300;BME280;39187;48.476;8.310;2023-05-17T03:11:57;91590.25;;;2.59;100.00
53300;BME280;39187;48.476;8.310;2023-05-17T03:16:50;91593.88;;;2.51;100.00
53300;BME280;39187;48.476;8.310;2023-05-17T03:19:15;91583.09;;;2.56;100.00
53300;BME280;39187;48.476;8.310;2023-05-17T03:21:41;91588.19;;;2.45;100.00
53300;BME280;39187;48.476;8.310;2023-05-17T03:24:07;91584.53;;;2.50;100.00
53300;BME280;39187;48.476;8.310;2023-05-17T03:26:32;91582.28;;;2.52;100.00
53300;BME280;39187;48.476;8.310;2023-05-17T03:28:58;91584.88;;;2.48;100.00
53300;BME280;39187;48.476;8.310;2023-05-17T03:31:24;91577.47;;;2.57;100.00
53300;BME280;39187;48.476;8.310;2023-05-17T03:33:49;91585.22;;;2.47;100.00
53300;BME280;39187;48.476;8.310;2023-05-17T03:36:15;91586.47;;;2.56;100.00
53300;BME280;39187;48.476;8.310;2023-05-17T03:38:41;91586.00;;;2.51;100.00
53300;BME280;39187;48.476;8.310;2023-05-17T03:41:06;91589.28;;;2.44;100.00
53300;BME280;39187;48.476;8.310;2023-05-17T03:43:32;91599.88;;;2.48;100.00
53300;BME280;39187;48.476;8.310;2023-05-17T03:45:57;91592.00;;;2.48;100.00
53300;BME280;39187;48.476;8.310;2023-05-17T03:48:23;91600.94;;;2.43;100.00
53300;BME280;39187;48.476;8.310;2023-05-17T03:50:48;91599.09;;;2.47;100.00
53300;BME280;39187;48.476;8.310;2023-05-17T03:53:14;91594.63;;;2.48;100.00
53300;BME280;39187;48.476;8.310;2023-05-17T03:55:39;91596.59;;;2.54;100.00
53300;BME280;39187;48.476;8.310;2023-05-17T03:58:06;91599.22;;;2.54;100.00
53300;BME280;39187;48.476;8.310;2023-05-17T04:00:31;91612.47;;;2.38;100.00
53300;BME280;39187;48.476;8.310;2023-05-17T04:02:57;91610.38;;;2.48;100.00
53300;BME280;39187;48.476;8.310;2023-05-17T04:05:23;91618.38;;;2.32;100.00
53300;BME280;39187;48.476;8.310;2023-05-17T04:07:48;91608.84;;;2.47;100.00
53300;BME280;39187;48.476;8.310;2023-05-17T04:10:14;91622.09;;;2.54;100.00
53300;BME280;39187;48.476;8.310;2023-05-17T04:12:39;91616.59;;;2.36;100.00
53300;BME280;39187;48.476;8.310;2023-05-17T04:15:06;91620.94;;;2.51;100.00
53300;BME280;39187;48.476;8.310;2023-05-17T04:17:31;91618.44;;;2.35;100.00
53300;BME280;39187;48.476;8.310;2023-05-17T04:19:57;91619.66;;;2.41;100.00
53300;BME280;39187;48.476;8.310;2023-05-17T04:22:22;91628.00;;;2.47;100.00
53300;BME280;39187;48.476;8.310;2023-05-17T04:24:48;91632.94;;;2.52;100.00
53300;BME280;39187;48.476;8.310;2023-05-17T04:27:13;91629.25;;;2.57;100.00
53300;BME280;39187;48.476;8.310;2023-05-17T04:29:39;91632.06;;;2.67;100.00
53300;BME280;39187;48.476;8.310;2023-05-17T04:32:06;91641.94;;;2.51;100.00
53300;BME280;39187;48.476;8.310;2023-05-17T04:34:32;91628.88;;;2.81;100.00
53300;BME280;39187;48.476;8.310;2023-05-17T04:36:57;91621.75;;;2.81;100.00
53300;BME280;39187;48.476;8.310;2023-05-17T04:39:23;91636.16;;;3.21;100.00
53300;BME280;39187;48.476;8.310;2023-05-17T04:41:49;91631.81;;;3.32;100.00
53300;BME280;39187;48.476;8.310;2023-05-17T04:44:14;91640.78;;;3.61;100.00
53300;BME280;39187;48.476;8.310;2023-05-17T04:46:41;91639.81;;;3.76;100.00
53300;BME280;39187;48.476;8.310;2023-05-17T04:49:08;91637.16;;;4.13;100.00
53300;BME280;39187;48.476;8.310;2023-05-17T04:51:34;91633.84;;;4.20;100.00
53300;BME280;39187;48.476;8.310;2023-05-17T04:54:00;91639.47;;;4.62;100.00
53300;BME280;39187;48.476;8.310;2023-05-17T04:56:26;91640.44;;;4.95;100.00
53300;BME280;39187;48.476;8.310;2023-05-17T04:58:52;91644.00;;;5.23;100.00
53300;BME280;39187;48.476;8.310;2023-05-17T05:01:18;91639.53;;;5.38;100.00
53300;BME280;39187;48.476;8.310;2023-05-17T05:03:44;91647.94;;;5.54;100.00
53300;BME280;39187;48.476;8.310;2023-05-17T05:06:09;91652.09;;;5.55;100.00
53300;BME280;39187;48.476;8.310;2023-05-17T05:08:35;91658.31;;;5.98;99.75
53300;BME280;39187;48.476;8.310;2023-05-17T05:11:02;91656.47;;;6.17;96.32
53300;BME280;39187;48.476;8.310;2023-05-17T05:13:27;91660.09;;;5.84;99.97
53300;BME280;39187;48.476;8.310;2023-05-17T05:15:53;91663.66;;;5.33;99.45
53300;BME280;39187;48.476;8.310;2023-05-17T05:18:18;91670.00;;;5.94;98.61
53300;BME280;39187;48.476;8.310;2023-05-17T05:20:45;91667.78;;;5.27;99.38
53300;BME280;39187;48.476;8.310;2023-05-17T05:23:10;91679.34;;;5.84;98.95
53300;BME280;39187;48.476;8.310;2023-05-17T05:25:36;91675.72;;;6.14;98.35
53300;BME280;39187;48.476;8.310;2023-05-17T05:28:02;91681.63;;;5.86;98.55
53300;BME280;39187;48.476;8.310;2023-05-17T05:30:27;91677.56;;;5.99;97.65
53300;BME280;39187;48.476;8.310;2023-05-17T05:32:53;91686.31;;;6.31;97.21
53300;BME280;39187;48.476;8.310;2023-05-17T05:35:19;91690.75;;;6.02;95.02
53300;BME280;39187;48.476;8.310;2023-05-17T05:37:44;91688.56;;;6.29;97.42
53300;BME280;39187;48.476;8.310;2023-05-17T05:40:10;91693.63;;;5.65;97.58
53300;BME280;39187;48.476;8.310;2023-05-17T05:42:36;91683.34;;;6.79;94.55
53300;BME280;39187;48.476;8.310;2023-05-17T05:45:02;91690.91;;;7.19;92.52
53300;BME280;39187;48.476;8.310;2023-05-17T05:47:28;91697.63;;;6.25;95.60
53300;BME280;39187;48.476;8.310;2023-05-17T05:49:53;91700.38;;;6.81;94.91
53300;BME280;39187;48.476;8.310;2023-05-17T05:52:19;91709.78;;;7.39;90.35
53300;BME280;39187;48.476;8.310;2023-05-17T05:54:45;91699.94;;;7.47;88.32
53300;BME280;39187;48.476;8.310;2023-05-17T05:57:10;91696.56;;;7.36;91.24
53300;BME280;39187;48.476;8.310;2023-05-17T05:59:36;91695.06;;;6.74;91.41
53300;BME280;39187;48.476;8.310;2023-05-17T06:02:01;91695.84;;;7.10;89.88
53300;BME280;39187;48.476;8.310;2023-05-17T06:04:27;91703.00;;;6.67;92.35
53300;BME280;39187;48.476;8.310;2023-05-17T06:06:53;91711.72;;;6.78;93.84
53300;BME280;39187;48.476;8.310;2023-05-17T06:09:19;91721.44;;;6.25;96.31
53300;BME280;39187;48.476;8.310;2023-05-17T06:11:44;91720.38;;;5.60;100.00
53300;BME280;39187;48.476;8.310;2023-05-17T06:14:10;91716.13;;;5.42;100.00
53300;BME280;39187;48.476;8.310;2023-05-17T06:16:36;91716.09;;;4.87;100.00
53300;BME280;39187;48.476;8.310;2023-05-17T06:19:02;91722.47;;;5.30;100.00
53300;BME280;39187;48.476;8.310;2023-05-17T06:21:28;91737.59;;;4.45;100.00
53300;BME280;39187;48.476;8.310;2023-05-17T06:23:53;91746.81;;;4.65;100.00
53300;BME280;39187;48.476;8.310;2023-05-17T06:26:19;91721.50;;;4.54;100.00
53300;BME280;39187;48.476;8.310;2023-05-17T06:28:44;91725.19;;;4.49;100.00
53300;BME280;39187;48.476;8.310;2023-05-17T06:31:10;91723.81;;;4.22;100.00
53300;BME280;39187;48.476;8.310;2023-05-17T06:33:35;91728.81;;;4.74;100.00
53300;BME280;39187;48.476;8.310;2023-05-17T06:36:01;91729.16;;;4.29;100.00
53300;BME280;39187;48.476;8.310;2023-05-17T06:38:26;91735.91;;;4.26;100.00
53300;BME280;39187;48.476;8.310;2023-05-17T06:40:55;91720.25;;;4.88;100.00
53300;BME280;39187;48.476;8.310;2023-05-17T06:43:21;91730.19;;;4.21;100.00
53300;BME280;39187;48.476;8.310;2023-05-17T06:45:47;91735.22;;;4.73;100.00
53300;BME280;39187;48.476;8.310;2023-05-17T06:48:13;91732.91;;;4.68;100.00
53300;BME280;39187;48.476;8.310;2023-05-17T06:50:38;91727.25;;;4.29;100.00
53300;BME280;39187;48.476;8.310;2023-05-17T06:53:04;91736.56;;;5.01;100.00
53300;BME280;39187;48.476;8.310;2023-05-17T06:55:30;91737.50;;;4.34;100.00
53300;BME280;39187;48.476;8.310;2023-05-17T06:57:55;91735.38;;;4.51;100.00
53300;BME280;39187;48.476;8.310;2023-05-17T07:00:21;91738.44;;;4.56;100.00
53300;BME280;39187;48.476;8.310;2023-05-17T07:02:47;91736.16;;;4.51;100.00
53300;BME280;39187;48.476;8.310;2023-05-17T07:05:12;91745.03;;;4.76;100.00
53300;BME280;39187;48.476;8.310;2023-05-17T07:07:38;91739.25;;;5.08;100.00
53300;BME280;39187;48.476;8.310;2023-05-17T07:10:04;91733.84;;;4.90;100.00
53300;BME280;39187;48.476;8.310;2023-05-17T07:12:30;91750.50;;;5.01;100.00
53300;BME280;39187;48.476;8.310;2023-05-17T07:14:56;91755.06;;;4.60;100.00
53300;BME280;39187;48.476;8.310;2023-05-17T07:17:21;91749.63;;;4.87;100.00
53300;BME280;39187;48.476;8.310;2023-05-17T07:19:47;91761.81;;;4.58;100.00
53300;BME280;39187;48.476;8.310;2023-05-17T07:22:16;91762.69;;;4.35;100.00
53300;BME280;39187;48.476;8.310;2023-05-17T07:24:43;91760.28;;;4.53;100.00
53300;BME280;39187;48.476;8.310;2023-05-17T07:27:08;91764.72;;;4.46;100.00
53300;BME280;39187;48.476;8.310;2023-05-17T07:29:34;91767.00;;;4.47;100.00
53300;BME280;39187;48.476;8.310;2023-05-17T07:32:00;91766.50;;;4.04;100.00
53300;BME280;39187;48.476;8.310;2023-05-17T07:34:25;91763.22;;;4.48;100.00
53300;BME280;39187;48.476;8.310;2023-05-17T07:36:51;91763.19;;;4.44;100.00
53300;BME280;39187;48.476;8.310;2023-05-17T07:39:16;91770.78;;;4.94;100.00
53300;BME280;39187;48.476;8.310;2023-05-17T07:41:42;91766.06;;;5.68;100.00
53300;BME280;39187;48.476;8.310;2023-05-17T07:44:07;91757.56;;;6.03;100.00
53300;BME280;39187;48.476;8.310;2023-05-17T07:46:33;91765.69;;;6.46;98.78
53300;BME280;39187;48.476;8.310;2023-05-17T07:48:58;91756.63;;;6.54;96.42
53300;BME280;39187;48.476;8.310;2023-05-17T07:51:24;91773.81;;;6.05;98.83
53300;BME280;39187;48.476;8.310;2023-05-17T07:53:49;91764.81;;;5.51;97.33
53300;BME280;39187;48.476;8.310;2023-05-17T07:56:15;91761.06;;;6.25;100.00
53300;BME280;39187;48.476;8.310;2023-05-17T07:58:40;91768.38;;;6.70;97.45
53300;BME280;39187;48.476;8.310;2023-05-17T08:01:06;91766.50;;;6.78;93.86
53300;BME280;39187;48.476;8.310;2023-05-17T08:03:34;91768.41;;;7.55;90.64
53300;BME280;39187;48.476;8.310;2023-05-17T08:05:59;91775.97;;;7.11;89.67
53300;BME280;39187;48.476;8.310;2023-05-17T08:08:25;91771.44;;;6.97;91.24
53300;BME280;39187;48.476;8.310;2023-05-17T08:10:51;91774.09;;;7.25;90.79
53300;BME280;39187;48.476;8.310;2023-05-17T08:13:16;91763.47;;;7.72;86.53
53300;BME280;39187;48.476;8.310;2023-05-17T08:15:42;91772.94;;;6.98;87.24
53300;BME280;39187;48.476;8.310;2023-05-17T08:18:07;91765.03;;;7.41;88.65
53300;BME280;39187;48.476;8.310;2023-05-17T08:20:33;91777.47;;;7.79;87.22
53300;BME280;39187;48.476;8.310;2023-05-17T08:22:58;91763.28;;;8.39;84.56
53300;BME280;39187;48.476;8.310;2023-05-17T08:25:24;91767.75;;;9.22;84.13
53300;BME280;39187;48.476;8.310;2023-05-17T08:27:49;91778.31;;;9.29;75.10
53300;BME280;39187;48.476;8.310;2023-05-17T08:30:15;91765.91;;;8.50;78.93
53300;BME280;39187;48.476;8.310;2023-05-17T08:32:41;91755.22;;;9.22;77.35
53300;BME280;39187;48.476;8.310;2023-05-17T08:35:07;91764.34;;;8.59;74.33
53300;BME280;39187;48.476;8.310;2023-05-17T08:37:32;91756.94;;;8.12;80.41
53300;BME280;39187;48.476;8.310;2023-05-17T08:39:58;91762.59;;;8.14;79.16
53300;BME280;39187;48.476;8.310;2023-05-17T08:42:23;91775.59;;;7.12;84.14
53300;BME280;39187;48.476;8.310;2023-05-17T08:44:52;91784.69;;;7.22;86.50
53300;BME280;39187;48.476;8.310;2023-05-17T08:47:20;91777.84;;;7.71;84.52
53300;BME280;39187;48.476;8.310;2023-05-17T08:49:57;91784.69;;;7.36;86.27
53300;BME280;39187;48.476;8.310;2023-05-17T08:52:30;91777.50;;;7.01;87.86
53300;BME280;39187;48.476;8.310;2023-05-17T08:54:59;91771.03;;;6.74;88.41
53300;BME280;39187;48.476;8.310;2023-05-17T08:57:33;91778.91;;;6.60;89.76
53300;BME280;39187;48.476;8.310;2023-05-17T09:00:04;91778.19;;;5.80;91.37
53300;BME280;39187;48.476;8.310;2023-05-17T09:02:37;91783.78;;;6.43;92.40
53300;BME280;39187;48.476;8.310;2023-05-17T09:05:05;91776.28;;;6.53;90.88
53300;BME280;39187;48.476;8.310;2023-05-17T09:07:31;91777.09;;;6.99;89.49
53300;BME280;39187;48.476;8.310;2023-05-17T09:09:57;91779.78;;;7.31;86.15
53300;BME280;39187;48.476;8.310;2023-05-17T09:12:22;91777.13;;;7.52;84.60
53300;BME280;39187;48.476;8.310;2023-05-17T09:14:48;91778.22;;;7.80;82.74
53300;BME280;39187;48.476;8.310;2023-05-17T09:17:18;91780.06;;;8.11;81.30
53300;BME280;39187;48.476;8.310;2023-05-17T09:19:45;91778.84;;;8.40;77.00
53300;BME280;39187;48.476;8.310;2023-05-17T09:22:12;91797.53;;;7.55;82.04
53300;BME280;39187;48.476;8.310;2023-05-17T09:24:39;91790.38;;;7.45;81.68
53300;BME280;39187;48.476;8.310;2023-05-17T09:27:06;91808.91;;;7.31;80.71
53300;BME280;39187;48.476;8.310;2023-05-17T09:29:33;91799.34;;;6.63;83.83
53300;BME280;39187;48.476;8.310;2023-05-17T09:32:12;91795.22;;;6.87;84.87
53300;BME280;39187;48.476;8.310;2023-05-17T09:34:39;91794.13;;;7.05;84.35
53300;BME280;39187;48.476;8.310;2023-05-17T09:37:18;91801.72;;;7.67;80.13
53300;BME280;39187;48.476;8.310;2023-05-17T09:39:45;91803.59;;;7.20;80.02
53300;BME280;39187;48.476;8.310;2023-05-17T09:42:12;91804.34;;;7.32;82.01
53300;BME280;39187;48.476;8.310;2023-05-17T09:44:51;91789.63;;;7.20;78.34
53300;BME280;39187;48.476;8.310;2023-05-17T09:47:22;91797.53;;;7.02;80.34
53300;BME280;39187;48.476;8.310;2023-05-17T09:49:48;91799.44;;;7.30;81.38
53300;BME280;39187;48.476;8.310;2023-05-17T09:52:17;91802.84;;;7.34;81.99
53300;BME280;39187;48.476;8.310;2023-05-17T09:54:53;91803.16;;;6.87;83.47
53300;BME280;39187;48.476;8.310;2023-05-17T09:57:19;91796.28;;;6.50;86.97
53300;BME280;39187;48.476;8.310;2023-05-17T09:59:46;91802.84;;;7.09;85.36
53300;BME280;39187;48.476;8.310;2023-05-17T10:02:18;91791.06;;;6.75;85.90
53300;BME280;39187;48.476;8.310;2023-05-17T10:04:45;91799.44;;;7.09;85.30
53300;BME280;39187;48.476;8.310;2023-05-17T10:07:16;91810.28;;;6.58;85.78
53300;BME280;39187;48.476;8.310;2023-05-17T10:09:42;91808.09;;;6.92;84.31
53300;BME280;39187;48.476;8.310;2023-05-17T10:12:09;91808.88;;;5.95;87.92
53300;BME280;39187;48.476;8.310;2023-05-17T10:14:41;91812.13;;;6.39;88.87
53300;BME280;39187;48.476;8.310;2023-05-17T10:17:08;91807.28;;;6.66;86.26
53300;BME280;39187;48.476;8.310;2023-05-17T10:19:35;91799.41;;;7.05;84.92
53300;BME280;39187;48.476;8.310;2023-05-17T10:22:01;91799.06;;;7.24;84.76
53300;BME280;39187;48.476;8.310;2023-05-17T10:24:27;91805.47;;;7.62;82.86
53300;BME280;39187;48.476;8.310;2023-05-17T10:26:56;91809.66;;;7.21;85.01
53300;BME280;39187;48.476;8.310;2023-05-17T10:29:22;91800.91;;;6.81;88.43
53300;BME280;39187;48.476;8.310;2023-05-17T10:31:49;91794.13;;;6.98;87.71
53300;BME280;39187;48.476;8.310;2023-05-17T10:34:17;91803.94;;;6.87;87.59
53300;BME280;39187;48.476;8.310;2023-05-17T10:36:43;91801.63;;;6.64;86.62
53300;BME280;39187;48.476;8.310;2023-05-17T10:39:09;91805.47;;;6.99;86.49
53300;BME280;39187;48.476;8.310;2023-05-17T10:41:39;91802.47;;;7.14;86.66
53300;BME280;39187;48.476;8.310;2023-05-17T10:44:07;91800.94;;;7.17;85.19
53300;BME280;39187;48.476;8.310;2023-05-17T10:46:35;91799.03;;;6.93;85.62
53300;BME280;39187;48.476;8.310;2023-05-17T10:49:01;91794.88;;;7.62;84.54
53300;BME280;39187;48.476;8.310;2023-05-17T10:51:32;91816.78;;;6.78;82.49
53300;BME280;39187;48.476;8.310;2023-05-17T10:54:13;91814.13;;;6.81;83.97
53300;BME280;39187;48.476;8.310;2023-05-17T10:56:52;91808.09;;;6.77;86.42
53300;BME280;39187;48.476;8.310;2023-05-17T10:59:22;91813.38;;;6.92;87.05
53300;BME280;39187;48.476;8.310;2023-05-17T11:01:56;91807.31;;;6.70;87.06
53300;BME280;39187;48.476;8.310;2023-05-17T11:04:36;91818.00;;;7.23;86.47
53300;BME280;39187;48.476;8.310;2023-05-17T11:10:00;91794.16;;;7.41;81.90
53300;BME280;39187;48.476;8.310;2023-05-17T11:15:07;91807.00;;;7.49;77.83
53300;BME280;39187;48.476;8.310;2023-05-17T11:17:53;91813.03;;;7.18;80.91
53300;BME280;39187;48.476;8.310;2023-05-17T11:23:02;91796.41;;;7.60;80.04
53300;BME280;39187;48.476;8.310;2023-05-17T11:25:38;91799.06;;;7.28;81.07
53300;BME280;39187;48.476;8.310;2023-05-17T11:28:17;91794.53;;;7.50;80.20
53300;BME280;39187;48.476;8.310;2023-05-17T11:30:42;91814.19;;;7.03;81.73
53300;BME280;39187;48.476;8.310;2023-05-17T11:33:15;91802.47;;;7.29;78.73
53300;BME280;39187;48.476;8.310;2023-05-17T11:35:41;91810.75;;;6.99;81.21
53300;BME280;39187;48.476;8.310;2023-05-17T11:38:17;91805.09;;;6.90;85.42
53300;BME280;39187;48.476;8.310;2023-05-17T11:40:48;91814.59;;;7.33;80.26
53300;BME280;39187;48.476;8.310;2023-05-17T11:43:14;91804.75;;;7.34;77.69
53300;BME280;39187;48.476;8.310;2023-05-17T11:45:47;91806.97;;;7.00;80.06
53300;BME280;39187;48.476;8.310;2023-05-17T11:48:15;91800.94;;;7.56;80.60
53300;BME280;39187;48.476;8.310;2023-05-17T11:50:43;91796.00;;;7.76;78.28
53300;BME280;39187;48.476;8.310;2023-05-17T11:53:10;91805.13;;;7.57;77.85
53300;BME280;39187;48.476;8.310;2023-05-17T11:55:41;91801.72;;;7.24;81.11
53300;BME280;39187;48.476;8.310;2023-05-17T11:58:08;91795.28;;;7.72;78.83
53300;BME280;39187;48.476;8.310;2023-05-17T12:00:38;91794.53;;;7.60;80.91
53300;BME280;39187;48.476;8.310;2023-05-17T12:03:28;91797.19;;;7.32;79.59
53300;BME280;39187;48.476;8.310;2023-05-17T12:06:06;91801.31;;;7.37;79.03
53300;BME280;39187;48.476;8.310;2023-05-17T12:08:35;91809.69;;;7.35;79.42
53300;BME280;39187;48.476;8.310;2023-05-17T12:11:01;91807.41;;;7.34;81.06
53300;BME280;39187;48.476;8.310;2023-05-17T12:13:28;91810.72;;;6.81;81.83
53300;BME280;39187;48.476;8.310;2023-05-17T12:16:08;91821.75;;;7.33;80.89
53300;BME280;39187;48.476;8.310;2023-05-17T12:18:42;91811.53;;;7.63;81.13
53300;BME280;39187;48.476;8.310;2023-05-17T12:21:11;91804.72;;;7.30;81.26
53300;BME280;39187;48.476;8.310;2023-05-17T12:23:39;91817.59;;;7.24;81.57
53300;BME280;39187;48.476;8.310;2023-05-17T12:26:13;91814.97;;;7.42;78.13
53300;BME280;39187;48.476;8.310;2023-05-17T12:31:16;91800.16;;;7.91;76.93
53300;BME280;39187;48.476;8.310;2023-05-17T12:33:43;91802.38;;;8.10;74.72
53300;BME280;39187;48.476;8.310;2023-05-17T12:36:12;91798.53;;;8.39;73.33
53300;BME280;39187;48.476;8.310;2023-05-17T12:38:43;91796.69;;;8.22;71.97
53300;BME280;39187;48.476;8.310;2023-05-17T12:41:15;91793.34;;;7.90;73.07
53300;BME280;39187;48.476;8.310;2023-05-17T12:43:43;91793.00;;;7.77;74.50
53300;BME280;39187;48.476;8.310;2023-05-17T12:46:12;91799.81;;;7.71;80.44
53300;BME280;39187;48.476;8.310;2023-05-17T12:48:41;91800.59;;;7.54;82.80
53300;BME280;39187;48.476;8.310;2023-05-17T12:51:15;91797.94;;;7.47;82.71
53300;BME280;39187;48.476;8.310;2023-05-17T12:53:43;91804.72;;;7.12;86.03
53300;BME280;39187;48.476;8.310;2023-05-17T12:56:17;91802.88;;;7.48;85.43
53300;BME280;39187;48.476;8.310;2023-05-17T12:58:46;91800.19;;;7.59;85.14
53300;BME280;39187;48.476;8.310;2023-05-17T13:01:32;91789.63;;;7.48;86.61
53300;BME280;39187;48.476;8.310;2023-05-17T13:03:58;91797.53;;;7.31;85.75
53300;BME280;39187;48.476;8.310;2023-05-17T13:06:23;91790.38;;;7.38;83.98
53300;BME280;39187;48.476;8.310;2023-05-17T13:09:00;91797.56;;;7.16;84.33
53300;BME280;39187;48.476;8.310;2023-05-17T13:11:26;91783.91;;;7.71;85.32
53300;BME280;39187;48.476;8.310;2023-05-17T13:13:52;91795.25;;;7.86;86.30
53300;BME280;39187;48.476;8.310;2023-05-17T13:16:28;91782.81;;;7.30;74.96
53300;BME280;39187;48.476;8.310;2023-05-17T13:18:54;91795.66;;;7.45;81.33
53300;BME280;39187;48.476;8.310;2023-05-17T13:21:20;91792.66;;;7.61;82.43
53300;BME280;39187;48.476;8.310;2023-05-17T13:23:47;91787.72;;;7.28;85.90
53300;BME280;39187;48.476;8.310;2023-05-17T13:26:14;91790.34;;;7.24;84.98
53300;BME280;39187;48.476;8.310;2023-05-17T13:28:40;91793.75;;;7.63;83.29